Startpagina
METAR-TAF:

METAR-TAF

Vliegvelden :

Pietersburg, Zuid-Afrika

breedte: 23-50-43S, lengte: 29-27-31E, hoogte: 1242 m

Actueel weer

Dit bericht is 36 minuten geleden gemaakt, om 14:00 UTC
Wind 3 kt uit het noordnoordoosten
Temperatuur 27°C
Vochtigheid 39%
Druk 1017 hPa
Zicht 10 km of meer
Weinig wolken op 3800 ft

METAR: FAPP 261400Z 02003KT 9999 FEW038 27/12 Q1017 NOSIG

Tijdstip: 16:36 (14:36 UTC)

Verwachting

Dit bericht is 5 uur en het 36 minuten geleden gemaakt, om 09:00 UTC
Verwachting geldig van 26 om 10 UTC tot 26 om 18 UTC
Wind 3 kt uit variabele richting
Zicht 10 km of meer
Weinig wolken op 3000 ft
Wijzigt naar
van 26 om 15 UTC tot 26 om 17 UTC
Zicht 10 km of meer
geen wolken onder 1500 m en geen cumulonimbus

TAF: FAPP 260900Z 2610/2618 VRB03KT 9999 FEW030 TX27/2613Z TN22/2618Z BECMG 2615/2617 CAVOK

Waarnemingen en weersverwachtingen van meer dan 4000 vliegvelden (METAR en TAF).

De beschikbare stations zijn de gele en rode punten op de kaart.

Ga met uw muis naar het station om de naam te zien.

Klik dan om waarnemingen en weersverwachtingen te zien.

kaart wijzigen: klik op de groene knoppen met een zwart kruis om in te zoomen, op de groene knop met een streepje om uit te zoomen of op de groene pijlen voor aangrenzende kaarten.


METAR-TAF: